Decoded Metar for UWGG (NIZHNY NOVGOROD in RUSSIA) (IATA:N/A) | Meteo·Mobile Aviation Weather
aviador You're here:

UWGG Decoded Metar

NIZHNY NOVGOROD in RUSSIA
Report Time2018-10-17 05:30:00
UTC Time2018-10-17 06:05:07
Flight Rules mvfr MVFR
Wind270° at 6 kt
W.Decomp.*RWY 18: 1.1 kt HW 5.9 kt RCW
W.Rank270° ranks 17
Current wind is above 270° avg. (5.4)
Visibility9999 m
Phenomena:N/A
Clouds:Broken 022 Hf
Expected CloudBase > 1,200 ft AGL from Temp-Dew spread
Ceiling2,200 ft
Temp08°C (ISA -7)
Dew Point05°C (82% RH)
AAT4.7°C
QNH1020 hPa
Density Alt-659 ft
Elevation240 ft
Report Wrong Elevation
Raw Report
METAR UWGG 170530Z 27003MPS 9999 BKN022 08/05 Q1020 R18L/090070 NOSIG=

Extra information for UWGG:More info

Metar Taf Metar & Taf Last 4 Metars F.Rules Stats Wind Profile Meteogram Temp Stats Airport Information Weather charts Add Link Nearby VenuesMetar ALERT Operation Metar Decoded Social comments